sensor_id;sensor_type;location;lat;lon;timestamp;P1;durP1;ratioP1;P2;durP2;ratioP2
39078;SDS011;24829;49.208;12.080;2023-01-26T00:02:05;40.10;;;17.52;;
39078;SDS011;24829;49.208;12.080;2023-01-26T00:04:30;49.08;;;18.05;;
39078;SDS011;24829;49.208;12.080;2023-01-26T00:06:56;37.25;;;17.52;;
39078;SDS011;24829;49.208;12.080;2023-01-26T00:09:21;44.28;;;18.25;;
39078;SDS011;24829;49.208;12.080;2023-01-26T00:11:47;50.22;;;19.65;;
39078;SDS011;24829;49.208;12.080;2023-01-26T00:14:13;42.33;;;19.02;;
39078;SDS011;24829;49.208;12.080;2023-01-26T00:16:38;44.22;;;18.77;;
39078;SDS011;24829;49.208;12.080;2023-01-26T00:19:04;45.60;;;19.63;;
39078;SDS011;24829;49.208;12.080;2023-01-26T00:21:29;44.50;;;19.42;;
39078;SDS011;24829;49.208;12.080;2023-01-26T00:23:55;50.78;;;20.80;;
39078;SDS011;24829;49.208;12.080;2023-01-26T00:26:23;46.67;;;19.35;;
39078;SDS011;24829;49.208;12.080;2023-01-26T00:28:50;41.42;;;17.08;;
39078;SDS011;24829;49.208;12.080;2023-01-26T00:31:20;52.85;;;22.23;;
39078;SDS011;24829;49.208;12.080;2023-01-26T00:33:47;51.80;;;19.80;;
39078;SDS011;24829;49.208;12.080;2023-01-26T00:36:14;59.70;;;22.00;;
39078;SDS011;24829;49.208;12.080;2023-01-26T00:38:40;51.65;;;20.00;;
39078;SDS011;24829;49.208;12.080;2023-01-26T00:41:06;49.03;;;20.08;;
39078;SDS011;24829;49.208;12.080;2023-01-26T00:43:31;47.17;;;19.95;;
39078;SDS011;24829;49.208;12.080;2023-01-26T00:45:57;53.47;;;20.73;;
39078;SDS011;24829;49.208;12.080;2023-01-26T00:48:23;53.70;;;20.45;;
39078;SDS011;24829;49.208;12.080;2023-01-26T00:50:51;55.75;;;22.75;;
39078;SDS011;24829;49.208;12.080;2023-01-26T00:53:17;51.10;;;19.52;;
39078;SDS011;24829;49.208;12.080;2023-01-26T00:55:43;51.63;;;21.55;;
39078;SDS011;24829;49.208;12.080;2023-01-26T00:58:08;52.92;;;20.42;;
39078;SDS011;24829;49.208;12.080;2023-01-26T01:00:35;47.30;;;20.17;;
39078;SDS011;24829;49.208;12.080;2023-01-26T01:03:02;53.05;;;22.20;;
39078;SDS011;24829;49.208;12.080;2023-01-26T01:05:29;50.10;;;19.08;;
39078;SDS011;24829;49.208;12.080;2023-01-26T01:07:55;50.55;;;20.40;;
39078;SDS011;24829;49.208;12.080;2023-01-26T01:10:21;53.15;;;20.15;;
39078;SDS011;24829;49.208;12.080;2023-01-26T01:12:47;47.80;;;20.23;;
39078;SDS011;24829;49.208;12.080;2023-01-26T01:15:13;51.50;;;21.17;;
39078;SDS011;24829;49.208;12.080;2023-01-26T01:17:38;52.95;;;21.25;;
39078;SDS011;24829;49.208;12.080;2023-01-26T01:20:05;51.00;;;20.67;;
39078;SDS011;24829;49.208;12.080;2023-01-26T01:22:33;54.92;;;20.83;;
39078;SDS011;24829;49.208;12.080;2023-01-26T01:25:00;56.85;;;22.08;;
39078;SDS011;24829;49.208;12.080;2023-01-26T01:27:25;54.08;;;21.83;;
39078;SDS011;24829;49.208;12.080;2023-01-26T01:29:51;60.55;;;21.42;;
39078;SDS011;24829;49.208;12.080;2023-01-26T01:32:17;59.03;;;22.90;;
39078;SDS011;24829;49.208;12.080;2023-01-26T01:34:45;55.47;;;23.60;;
39078;SDS011;24829;49.208;12.080;2023-01-26T01:37:12;53.10;;;20.77;;
39078;SDS011;24829;49.208;12.080;2023-01-26T01:39:37;48.13;;;19.50;;
39078;SDS011;24829;49.208;12.080;2023-01-26T01:42:03;58.65;;;22.10;;
39078;SDS011;24829;49.208;12.080;2023-01-26T01:44:29;56.85;;;24.23;;
39078;SDS011;24829;49.208;12.080;2023-01-26T01:47:15;53.88;;;20.48;;
39078;SDS011;24829;49.208;12.080;2023-01-26T01:49:48;53.20;;;19.45;;
39078;SDS011;24829;49.208;12.080;2023-01-26T01:52:15;50.75;;;19.98;;
39078;SDS011;24829;49.208;12.080;2023-01-26T01:54:55;43.13;;;18.35;;
39078;SDS011;24829;49.208;12.080;2023-01-26T01:57:27;56.50;;;20.40;;
39078;SDS011;24829;49.208;12.080;2023-01-26T02:00:05;56.45;;;19.63;;
39078;SDS011;24829;49.208;12.080;2023-01-26T02:02:33;44.20;;;16.42;;
39078;SDS011;24829;49.208;12.080;2023-01-26T02:05:03;47.70;;;17.38;;
39078;SDS011;24829;49.208;12.080;2023-01-26T02:07:49;55.13;;;19.33;;
39078;SDS011;24829;49.208;12.080;2023-01-26T02:10:16;48.95;;;20.17;;
39078;SDS011;24829;49.208;12.080;2023-01-26T02:12:43;47.55;;;18.30;;
39078;SDS011;24829;49.208;12.080;2023-01-26T02:15:11;56.03;;;19.58;;
39078;SDS011;24829;49.208;12.080;2023-01-26T02:17:38;49.88;;;19.33;;
39078;SDS011;24829;49.208;12.080;2023-01-26T02:20:19;53.53;;;19.98;;
39078;SDS011;24829;49.208;12.080;2023-01-26T02:23:07;54.15;;;18.42;;
39078;SDS011;24829;49.208;12.080;2023-01-26T02:28:17;48.78;;;17.50;;
39078;SDS011;24829;49.208;12.080;2023-01-26T02:30:44;53.03;;;19.65;;
39078;SDS011;24829;49.208;12.080;2023-01-26T02:33:21;43.60;;;17.17;;
39078;SDS011;24829;49.208;12.080;2023-01-26T02:35:49;50.05;;;18.98;;
39078;SDS011;24829;49.208;12.080;2023-01-26T02:38:15;47.35;;;18.23;;
39078;SDS011;24829;49.208;12.080;2023-01-26T02:40:55;42.55;;;17.75;;
39078;SDS011;24829;49.208;12.080;2023-01-26T02:43:26;50.28;;;18.60;;
39078;SDS011;24829;49.208;12.080;2023-01-26T02:45:52;45.28;;;18.15;;
39078;SDS011;24829;49.208;12.080;2023-01-26T02:48:19;49.92;;;19.40;;
39078;SDS011;24829;49.208;12.080;2023-01-26T02:51:03;44.33;;;16.98;;
39078;SDS011;24829;49.208;12.080;2023-01-26T02:53:29;38.97;;;17.23;;
39078;SDS011;24829;49.208;12.080;2023-01-26T02:55:55;46.25;;;18.40;;
39078;SDS011;24829;49.208;12.080;2023-01-26T02:58:21;46.88;;;16.63;;
39078;SDS011;24829;49.208;12.080;2023-01-26T03:00:46;73.57;;;29.98;;
39078;SDS011;24829;49.208;12.080;2023-01-26T03:03:13;54.45;;;21.73;;
39078;SDS011;24829;49.208;12.080;2023-01-26T03:05:40;50.85;;;18.35;;
39078;SDS011;24829;49.208;12.080;2023-01-26T03:08:06;42.53;;;17.70;;
39078;SDS011;24829;49.208;12.080;2023-01-26T03:10:32;43.30;;;17.25;;
39078;SDS011;24829;49.208;12.080;2023-01-26T03:12:58;46.25;;;18.10;;
39078;SDS011;24829;49.208;12.080;2023-01-26T03:15:24;54.15;;;19.35;;
39078;SDS011;24829;49.208;12.080;2023-01-26T03:18:07;51.58;;;20.05;;
39078;SDS011;24829;49.208;12.080;2023-01-26T03:20:53;49.88;;;20.13;;
39078;SDS011;24829;49.208;12.080;2023-01-26T03:23:37;47.78;;;18.40;;
39078;SDS011;24829;49.208;12.080;2023-01-26T03:26:21;67.97;;;24.27;;
39078;SDS011;24829;49.208;12.080;2023-01-26T03:29:05;63.20;;;24.73;;
39078;SDS011;24829;49.208;12.080;2023-01-26T03:31:31;59.42;;;21.73;;
39078;SDS011;24829;49.208;12.080;2023-01-26T03:33:56;66.32;;;24.10;;
39078;SDS011;24829;49.208;12.080;2023-01-26T03:36:22;63.85;;;22.88;;
39078;SDS011;24829;49.208;12.080;2023-01-26T03:38:47;56.15;;;19.88;;
39078;SDS011;24829;49.208;12.080;2023-01-26T03:41:13;51.10;;;18.45;;
39078;SDS011;24829;49.208;12.080;2023-01-26T03:43:57;56.92;;;20.20;;
39078;SDS011;24829;49.208;12.080;2023-01-26T03:46:41;53.53;;;20.38;;
39078;SDS011;24829;49.208;12.080;2023-01-26T03:49:25;79.45;;;27.77;;
39078;SDS011;24829;49.208;12.080;2023-01-26T03:52:09;60.13;;;20.27;;
39078;SDS011;24829;49.208;12.080;2023-01-26T03:54:53;58.65;;;20.48;;
39078;SDS011;24829;49.208;12.080;2023-01-26T03:57:37;46.10;;;18.08;;
39078;SDS011;24829;49.208;12.080;2023-01-26T04:00:03;48.95;;;18.30;;
39078;SDS011;24829;49.208;12.080;2023-01-26T04:02:30;54.63;;;18.33;;
39078;SDS011;24829;49.208;12.080;2023-01-26T04:05:14;56.33;;;20.35;;
39078;SDS011;24829;49.208;12.080;2023-01-26T04:08:02;55.72;;;19.70;;
39078;SDS011;24829;49.208;12.080;2023-01-26T04:10:48;53.22;;;17.98;;
39078;SDS011;24829;49.208;12.080;2023-01-26T04:13:15;53.88;;;19.88;;
39078;SDS011;24829;49.208;12.080;2023-01-26T04:16:09;47.45;;;17.65;;
39078;SDS011;24829;49.208;12.080;2023-01-26T04:18:53;52.88;;;18.88;;
39078;SDS011;24829;49.208;12.080;2023-01-26T04:21:38;52.78;;;20.90;;
39078;SDS011;24829;49.208;12.080;2023-01-26T04:24:04;46.30;;;17.38;;
39078;SDS011;24829;49.208;12.080;2023-01-26T04:26:38;49.40;;;17.95;;
39078;SDS011;24829;49.208;12.080;2023-01-26T04:29:05;51.40;;;17.90;;
39078;SDS011;24829;49.208;12.080;2023-01-26T04:31:33;48.35;;;17.08;;
39078;SDS011;24829;49.208;12.080;2023-01-26T04:34:00;49.05;;;17.42;;
39078;SDS011;24829;49.208;12.080;2023-01-26T04:36:27;47.80;;;20.63;;
39078;SDS011;24829;49.208;12.080;2023-01-26T04:38:53;45.83;;;16.73;;
39078;SDS011;24829;49.208;12.080;2023-01-26T04:41:19;45.95;;;17.88;;
39078;SDS011;24829;49.208;12.080;2023-01-26T04:43:45;44.17;;;17.90;;
39078;SDS011;24829;49.208;12.080;2023-01-26T04:46:10;43.05;;;17.60;;
39078;SDS011;24829;49.208;12.080;2023-01-26T04:48:36;43.75;;;16.08;;
39078;SDS011;24829;49.208;12.080;2023-01-26T04:51:06;47.00;;;17.38;;
39078;SDS011;24829;49.208;12.080;2023-01-26T04:53:35;44.72;;;17.58;;
39078;SDS011;24829;49.208;12.080;2023-01-26T04:56:00;40.58;;;15.07;;
39078;SDS011;24829;49.208;12.080;2023-01-26T04:58:26;40.33;;;15.82;;
39078;SDS011;24829;49.208;12.080;2023-01-26T05:00:55;33.47;;;14.07;;
39078;SDS011;24829;49.208;12.080;2023-01-26T05:03:22;36.88;;;14.07;;
39078;SDS011;24829;49.208;12.080;2023-01-26T05:05:49;38.58;;;15.23;;
39078;SDS011;24829;49.208;12.080;2023-01-26T05:08:17;37.33;;;13.73;;
39078;SDS011;24829;49.208;12.080;2023-01-26T05:10:44;36.95;;;13.48;;
39078;SDS011;24829;49.208;12.080;2023-01-26T05:13:10;31.88;;;13.02;;
39078;SDS011;24829;49.208;12.080;2023-01-26T05:15:35;31.80;;;13.15;;
39078;SDS011;24829;49.208;12.080;2023-01-26T05:18:01;34.00;;;11.93;;
39078;SDS011;24829;49.208;12.080;2023-01-26T05:20:28;26.27;;;11.00;;
39078;SDS011;24829;49.208;12.080;2023-01-26T05:22:54;30.58;;;12.68;;
39078;SDS011;24829;49.208;12.080;2023-01-26T05:25:19;32.05;;;11.93;;
39078;SDS011;24829;49.208;12.080;2023-01-26T05:27:45;33.08;;;12.75;;
39078;SDS011;24829;49.208;12.080;2023-01-26T05:30:11;33.83;;;13.88;;
39078;SDS011;24829;49.208;12.080;2023-01-26T05:32:37;33.72;;;13.27;;
39078;SDS011;24829;49.208;12.080;2023-01-26T05:35:03;32.67;;;12.43;;
39078;SDS011;24829;49.208;12.080;2023-01-26T05:37:29;36.08;;;13.32;;
39078;SDS011;24829;49.208;12.080;2023-01-26T05:39:55;42.25;;;16.52;;
39078;SDS011;24829;49.208;12.080;2023-01-26T05:42:21;39.83;;;15.07;;
39078;SDS011;24829;49.208;12.080;2023-01-26T05:44:47;40.03;;;15.55;;
39078;SDS011;24829;49.208;12.080;2023-01-26T05:47:13;37.13;;;15.13;;
39078;SDS011;24829;49.208;12.080;2023-01-26T05:49:38;41.53;;;16.38;;
39078;SDS011;24829;49.208;12.080;2023-01-26T05:52:14;37.67;;;15.82;;
39078;SDS011;24829;49.208;12.080;2023-01-26T05:54:41;39.03;;;14.93;;
39078;SDS011;24829;49.208;12.080;2023-01-26T05:57:07;36.85;;;14.23;;
39078;SDS011;24829;49.208;12.080;2023-01-26T05:59:33;31.63;;;12.98;;
39078;SDS011;24829;49.208;12.080;2023-01-26T06:01:58;36.22;;;14.98;;
39078;SDS011;24829;49.208;12.080;2023-01-26T06:04:24;31.77;;;12.98;;
39078;SDS011;24829;49.208;12.080;2023-01-26T06:06:54;36.25;;;13.95;;
39078;SDS011;24829;49.208;12.080;2023-01-26T06:09:20;30.55;;;13.15;;
39078;SDS011;24829;49.208;12.080;2023-01-26T06:11:46;34.90;;;13.95;;
39078;SDS011;24829;49.208;12.080;2023-01-26T06:14:12;34.97;;;13.50;;
39078;SDS011;24829;49.208;12.080;2023-01-26T06:16:38;36.92;;;12.57;;
39078;SDS011;24829;49.208;12.080;2023-01-26T06:19:03;34.63;;;13.60;;
39078;SDS011;24829;49.208;12.080;2023-01-26T06:21:30;35.42;;;12.55;;
39078;SDS011;24829;49.208;12.080;2023-01-26T06:23:55;33.33;;;12.90;;
39078;SDS011;24829;49.208;12.080;2023-01-26T06:26:21;32.60;;;12.43;;
39078;SDS011;24829;49.208;12.080;2023-01-26T06:28:48;34.35;;;13.10;;
39078;SDS011;24829;49.208;12.080;2023-01-26T06:31:14;30.45;;;12.68;;
39078;SDS011;24829;49.208;12.080;2023-01-26T06:33:40;35.38;;;14.45;;
39078;SDS011;24829;49.208;12.080;2023-01-26T06:36:08;34.60;;;12.18;;
39078;SDS011;24829;49.208;12.080;2023-01-26T06:38:35;29.10;;;12.82;;
39078;SDS011;24829;49.208;12.080;2023-01-26T06:41:02;38.88;;;14.38;;
39078;SDS011;24829;49.208;12.080;2023-01-26T06:43:29;32.63;;;13.25;;
39078;SDS011;24829;49.208;12.080;2023-01-26T06:45:56;38.08;;;14.20;;
39078;SDS011;24829;49.208;12.080;2023-01-26T06:48:23;40.55;;;14.30;;
39078;SDS011;24829;49.208;12.080;2023-01-26T06:50:49;39.45;;;12.88;;
39078;SDS011;24829;49.208;12.080;2023-01-26T06:55:57;32.38;;;13.98;;
39078;SDS011;24829;49.208;12.080;2023-01-26T06:58:23;33.97;;;12.73;;
39078;SDS011;24829;49.208;12.080;2023-01-26T07:00:49;35.38;;;13.52;;
39078;SDS011;24829;49.208;12.080;2023-01-26T07:03:14;36.35;;;16.02;;
39078;SDS011;24829;49.208;12.080;2023-01-26T07:05:40;29.52;;;12.23;;
39078;SDS011;24829;49.208;12.080;2023-01-26T07:08:05;34.53;;;12.88;;
39078;SDS011;24829;49.208;12.080;2023-01-26T07:10:32;29.85;;;12.30;;
39078;SDS011;24829;49.208;12.080;2023-01-26T07:12:59;29.52;;;11.75;;
39078;SDS011;24829;49.208;12.080;2023-01-26T07:15:24;33.92;;;12.23;;
39078;SDS011;24829;49.208;12.080;2023-01-26T07:17:50;37.60;;;13.40;;
39078;SDS011;24829;49.208;12.080;2023-01-26T07:20:15;31.63;;;12.77;;
39078;SDS011;24829;49.208;12.080;2023-01-26T07:22:41;33.03;;;14.32;;
39078;SDS011;24829;49.208;12.080;2023-01-26T07:25:06;35.30;;;13.77;;
39078;SDS011;24829;49.208;12.080;2023-01-26T07:27:32;34.00;;;12.68;;
39078;SDS011;24829;49.208;12.080;2023-01-26T07:29:58;32.83;;;13.52;;
39078;SDS011;24829;49.208;12.080;2023-01-26T07:32:23;36.25;;;14.68;;
39078;SDS011;24829;49.208;12.080;2023-01-26T07:34:49;30.60;;;12.25;;
39078;SDS011;24829;49.208;12.080;2023-01-26T07:37:14;30.13;;;13.02;;
39078;SDS011;24829;49.208;12.080;2023-01-26T07:39:40;28.42;;;11.35;;
39078;SDS011;24829;49.208;12.080;2023-01-26T07:42:05;27.25;;;11.10;;
39078;SDS011;24829;49.208;12.080;2023-01-26T07:44:31;30.02;;;11.93;;
39078;SDS011;24829;49.208;12.080;2023-01-26T07:46:56;33.42;;;13.70;;
39078;SDS011;24829;49.208;12.080;2023-01-26T07:49:22;33.10;;;12.88;;
39078;SDS011;24829;49.208;12.080;2023-01-26T07:51:48;32.15;;;14.02;;
39078;SDS011;24829;49.208;12.080;2023-01-26T07:54:13;27.73;;;11.32;;
39078;SDS011;24829;49.208;12.080;2023-01-26T07:56:39;29.75;;;11.70;;
39078;SDS011;24829;49.208;12.080;2023-01-26T07:59:04;24.85;;;11.50;;
39078;SDS011;24829;49.208;12.080;2023-01-26T08:01:30;32.28;;;12.75;;
39078;SDS011;24829;49.208;12.080;2023-01-26T08:03:55;26.48;;;11.43;;
39078;SDS011;24829;49.208;12.080;2023-01-26T08:06:21;24.15;;;11.02;;
39078;SDS011;24829;49.208;12.080;2023-01-26T08:08:47;28.90;;;10.48;;
39078;SDS011;24829;49.208;12.080;2023-01-26T08:11:18;26.00;;;11.68;;
39078;SDS011;24829;49.208;12.080;2023-01-26T08:13:46;28.92;;;11.70;;
39078;SDS011;24829;49.208;12.080;2023-01-26T08:16:12;29.45;;;12.48;;
39078;SDS011;24829;49.208;12.080;2023-01-26T08:18:38;31.77;;;11.38;;
39078;SDS011;24829;49.208;12.080;2023-01-26T08:21:05;33.05;;;12.88;;
39078;SDS011;24829;49.208;12.080;2023-01-26T08:23:31;31.90;;;11.82;;
39078;SDS011;24829;49.208;12.080;2023-01-26T08:26:00;29.73;;;11.77;;
39078;SDS011;24829;49.208;12.080;2023-01-26T08:28:27;28.88;;;11.43;;
39078;SDS011;24829;49.208;12.080;2023-01-26T08:30:53;27.48;;;11.73;;
39078;SDS011;24829;49.208;12.080;2023-01-26T08:33:18;29.48;;;11.10;;
39078;SDS011;24829;49.208;12.080;2023-01-26T08:35:44;31.65;;;11.70;;
39078;SDS011;24829;49.208;12.080;2023-01-26T08:38:09;28.13;;;11.52;;
39078;SDS011;24829;49.208;12.080;2023-01-26T08:40:35;27.80;;;12.00;;
39078;SDS011;24829;49.208;12.080;2023-01-26T08:43:00;28.85;;;11.82;;
39078;SDS011;24829;49.208;12.080;2023-01-26T08:45:27;26.65;;;10.23;;
39078;SDS011;24829;49.208;12.080;2023-01-26T08:47:53;29.73;;;11.93;;
39078;SDS011;24829;49.208;12.080;2023-01-26T08:50:18;23.52;;;10.57;;
39078;SDS011;24829;49.208;12.080;2023-01-26T08:52:44;25.75;;;12.45;;
39078;SDS011;24829;49.208;12.080;2023-01-26T08:55:10;26.73;;;12.15;;
39078;SDS011;24829;49.208;12.080;2023-01-26T08:57:36;22.95;;;9.50;;
39078;SDS011;24829;49.208;12.080;2023-01-26T09:00:01;27.23;;;10.68;;
39078;SDS011;24829;49.208;12.080;2023-01-26T09:02:27;25.40;;;10.45;;
39078;SDS011;24829;49.208;12.080;2023-01-26T09:04:53;21.73;;;10.00;;
39078;SDS011;24829;49.208;12.080;2023-01-26T09:07:18;25.02;;;10.38;;
39078;SDS011;24829;49.208;12.080;2023-01-26T09:09:44;27.45;;;10.30;;
39078;SDS011;24829;49.208;12.080;2023-01-26T09:12:10;22.83;;;9.75;;
39078;SDS011;24829;49.208;12.080;2023-01-26T09:14:35;20.95;;;9.25;;
39078;SDS011;24829;49.208;12.080;2023-01-26T09:17:01;21.13;;;9.00;;
39078;SDS011;24829;49.208;12.080;2023-01-26T09:19:26;21.75;;;9.43;;
39078;SDS011;24829;49.208;12.080;2023-01-26T09:21:52;22.00;;;8.32;;
39078;SDS011;24829;49.208;12.080;2023-01-26T09:24:19;23.58;;;9.95;;
39078;SDS011;24829;49.208;12.080;2023-01-26T09:26:45;24.00;;;9.60;;
39078;SDS011;24829;49.208;12.080;2023-01-26T09:29:11;21.55;;;8.68;;
39078;SDS011;24829;49.208;12.080;2023-01-26T09:31:36;20.80;;;8.50;;
39078;SDS011;24829;49.208;12.080;2023-01-26T09:34:02;25.42;;;10.82;;
39078;SDS011;24829;49.208;12.080;2023-01-26T09:36:27;28.27;;;10.88;;
39078;SDS011;24829;49.208;12.080;2023-01-26T09:38:53;22.70;;;10.57;;
39078;SDS011;24829;49.208;12.080;2023-01-26T09:41:21;21.88;;;9.68;;
39078;SDS011;24829;49.208;12.080;2023-01-26T09:43:56;22.48;;;9.75;;
39078;SDS011;24829;49.208;12.080;2023-01-26T09:46:40;23.83;;;10.20;;
39078;SDS011;24829;49.208;12.080;2023-01-26T09:49:36;20.30;;;9.88;;
39078;SDS011;24829;49.208;12.080;2023-01-26T09:55:11;24.60;;;9.70;;
39078;SDS011;24829;49.208;12.080;2023-01-26T09:57:45;23.42;;;8.45;;
39078;SDS011;24829;49.208;12.080;2023-01-26T10:08:22;22.17;;;8.50;;
39078;SDS011;24829;49.208;12.080;2023-01-26T10:10:52;21.23;;;8.15;;
39078;SDS011;24829;49.208;12.080;2023-01-26T10:13:22;15.45;;;7.15;;
39078;SDS011;24829;49.208;12.080;2023-01-26T10:15:59;16.92;;;6.63;;
39078;SDS011;24829;49.208;12.080;2023-01-26T10:18:34;19.65;;;8.75;;
39078;SDS011;24829;49.208;12.080;2023-01-26T10:21:11;17.92;;;8.05;;
39078;SDS011;24829;49.208;12.080;2023-01-26T10:23:37;21.90;;;9.05;;
39078;SDS011;24829;49.208;12.080;2023-01-26T10:28:40;18.95;;;7.35;;
39078;SDS011;24829;49.208;12.080;2023-01-26T10:31:13;17.13;;;7.20;;
39078;SDS011;24829;49.208;12.080;2023-01-26T10:33:42;15.30;;;7.10;;
39078;SDS011;24829;49.208;12.080;2023-01-26T10:36:19;12.93;;;6.18;;
39078;SDS011;24829;49.208;12.080;2023-01-26T10:38:45;13.77;;;6.30;;
39078;SDS011;24829;49.208;12.080;2023-01-26T10:43:51;12.55;;;6.20;;
39078;SDS011;24829;49.208;12.080;2023-01-26T10:49:03;9.63;;;4.75;;
39078;SDS011;24829;49.208;12.080;2023-01-26T10:51:40;10.52;;;4.80;;
39078;SDS011;24829;49.208;12.080;2023-01-26T10:54:28;9.85;;;5.07;;
39078;SDS011;24829;49.208;12.080;2023-01-26T10:56:57;8.55;;;4.10;;
39078;SDS011;24829;49.208;12.080;2023-01-26T10:59:27;20.40;;;10.50;;
39078;SDS011;24829;49.208;12.080;2023-01-26T11:01:59;8.82;;;5.32;;
39078;SDS011;24829;49.208;12.080;2023-01-26T11:04:40;7.00;;;3.15;;
39078;SDS011;24829;49.208;12.080;2023-01-26T11:07:26;9.73;;;3.97;;
39078;SDS011;24829;49.208;12.080;2023-01-26T11:09:56;10.35;;;4.32;;
39078;SDS011;24829;49.208;12.080;2023-01-26T11:12:39;8.15;;;3.47;;
39078;SDS011;24829;49.208;12.080;2023-01-26T11:15:05;9.95;;;4.25;;
39078;SDS011;24829;49.208;12.080;2023-01-26T11:31:56;16.98;;;8.20;;
39078;SDS011;24829;49.208;12.080;2023-01-26T11:34:54;13.98;;;6.43;;
39078;SDS011;24829;49.208;12.080;2023-01-26T11:37:38;15.75;;;8.43;;
39078;SDS011;24829;49.208;12.080;2023-01-26T11:42:59;19.33;;;8.15;;
39078;SDS011;24829;49.208;12.080;2023-01-26T11:48:33;13.95;;;7.05;;
39078;SDS011;24829;49.208;12.080;2023-01-26T11:51:47;31.83;;;16.85;;
39078;SDS011;24829;49.208;12.080;2023-01-26T11:54:34;18.30;;;9.30;;
39078;SDS011;24829;49.208;12.080;2023-01-26T11:57:31;13.15;;;5.50;;
39078;SDS011;24829;49.208;12.080;2023-01-26T12:00:20;33.65;;;18.70;;
39078;SDS011;24829;49.208;12.080;2023-01-26T12:03:00;34.35;;;19.98;;
39078;SDS011;24829;49.208;12.080;2023-01-26T12:08:29;40.80;;;21.90;;
39078;SDS011;24829;49.208;12.080;2023-01-26T12:19:40;10.10;;;3.78;;
39078;SDS011;24829;49.208;12.080;2023-01-26T12:22:27;9.57;;;3.85;;
39078;SDS011;24829;49.208;12.080;2023-01-26T12:28:04;15.95;;;8.52;;
39078;SDS011;24829;49.208;12.080;2023-01-26T12:33:20;16.17;;;8.68;;
39078;SDS011;24829;49.208;12.080;2023-01-26T12:35:54;14.45;;;7.35;;
39078;SDS011;24829;49.208;12.080;2023-01-26T12:44:02;11.68;;;5.80;;
39078;SDS011;24829;49.208;12.080;2023-01-26T12:46:42;15.83;;;6.17;;
39078;SDS011;24829;49.208;12.080;2023-01-26T12:49:16;16.33;;;7.22;;
39078;SDS011;24829;49.208;12.080;2023-01-26T12:52:05;15.07;;;6.45;;
39078;SDS011;24829;49.208;12.080;2023-01-26T12:57:01;14.45;;;6.05;;
39078;SDS011;24829;49.208;12.080;2023-01-26T12:59:35;14.70;;;6.40;;
39078;SDS011;24829;49.208;12.080;2023-01-26T13:02:36;12.23;;;4.93;;
39078;SDS011;24829;49.208;12.080;2023-01-26T13:04:59;15.82;;;6.82;;
39078;SDS011;24829;49.208;12.080;2023-01-26T13:07:38;14.73;;;6.18;;
39078;SDS011;24829;49.208;12.080;2023-01-26T13:12:43;12.88;;;6.20;;
39078;SDS011;24829;49.208;12.080;2023-01-26T13:15:12;16.15;;;7.45;;
39078;SDS011;24829;49.208;12.080;2023-01-26T13:17:49;14.38;;;5.93;;
39078;SDS011;24829;49.208;12.080;2023-01-26T13:20:23;15.75;;;5.40;;
39078;SDS011;24829;49.208;12.080;2023-01-26T13:23:25;12.60;;;5.90;;
39078;SDS011;24829;49.208;12.080;2023-01-26T13:28:36;18.20;;;7.10;;
39078;SDS011;24829;49.208;12.080;2023-01-26T13:31:02;14.57;;;7.55;;
39078;SDS011;24829;49.208;12.080;2023-01-26T13:33:29;20.00;;;7.75;;
39078;SDS011;24829;49.208;12.080;2023-01-26T13:35:55;22.63;;;10.45;;
39078;SDS011;24829;49.208;12.080;2023-01-26T13:41:20;19.27;;;8.88;;
39078;SDS011;24829;49.208;12.080;2023-01-26T13:43:53;19.08;;;8.15;;
39078;SDS011;24829;49.208;12.080;2023-01-26T13:46:25;21.15;;;8.98;;
39078;SDS011;24829;49.208;12.080;2023-01-26T13:48:58;17.55;;;7.50;;
39078;SDS011;24829;49.208;12.080;2023-01-26T13:51:29;16.95;;;7.78;;
39078;SDS011;24829;49.208;12.080;2023-01-26T13:54:13;19.63;;;8.63;;
39078;SDS011;24829;49.208;12.080;2023-01-26T13:56:40;17.25;;;7.82;;
39078;SDS011;24829;49.208;12.080;2023-01-26T13:59:11;17.92;;;6.75;;
39078;SDS011;24829;49.208;12.080;2023-01-26T14:01:42;19.63;;;7.38;;
39078;SDS011;24829;49.208;12.080;2023-01-26T14:04:17;16.45;;;6.88;;
39078;SDS011;24829;49.208;12.080;2023-01-26T14:07:03;18.42;;;8.60;;
39078;SDS011;24829;49.208;12.080;2023-01-26T14:09:30;15.88;;;8.05;;
39078;SDS011;24829;49.208;12.080;2023-01-26T14:11:59;19.95;;;7.25;;
39078;SDS011;24829;49.208;12.080;2023-01-26T14:14:28;20.98;;;7.75;;
39078;SDS011;24829;49.208;12.080;2023-01-26T14:16:57;14.20;;;6.53;;
39078;SDS011;24829;49.208;12.080;2023-01-26T14:19:24;22.55;;;8.68;;
39078;SDS011;24829;49.208;12.080;2023-01-26T14:21:52;20.08;;;7.13;;
39078;SDS011;24829;49.208;12.080;2023-01-26T14:24:23;16.05;;;6.43;;
39078;SDS011;24829;49.208;12.080;2023-01-26T14:26:51;31.27;;;13.40;;
39078;SDS011;24829;49.208;12.080;2023-01-26T14:29:24;23.70;;;11.95;;
39078;SDS011;24829;49.208;12.080;2023-01-26T14:31:51;19.00;;;9.65;;
39078;SDS011;24829;49.208;12.080;2023-01-26T14:34:20;19.90;;;7.45;;
39078;SDS011;24829;49.208;12.080;2023-01-26T14:36:47;16.65;;;6.80;;
39078;SDS011;24829;49.208;12.080;2023-01-26T14:39:28;19.02;;;8.75;;
39078;SDS011;24829;49.208;12.080;2023-01-26T14:41:53;22.58;;;9.15;;
39078;SDS011;24829;49.208;12.080;2023-01-26T14:44:19;18.52;;;8.25;;
39078;SDS011;24829;49.208;12.080;2023-01-26T14:46:50;22.08;;;9.10;;
39078;SDS011;24829;49.208;12.080;2023-01-26T14:52:24;17.92;;;8.35;;
39078;SDS011;24829;49.208;12.080;2023-01-26T14:54:52;19.70;;;8.57;;
39078;SDS011;24829;49.208;12.080;2023-01-26T14:57:21;14.98;;;7.22;;
39078;SDS011;24829;49.208;12.080;2023-01-26T14:59:50;15.77;;;6.63;;
39078;SDS011;24829;49.208;12.080;2023-01-26T15:15:44;18.50;;;7.53;;
39078;SDS011;24829;49.208;12.080;2023-01-26T15:18:18;19.90;;;9.10;;
39078;SDS011;24829;49.208;12.080;2023-01-26T15:23:31;18.88;;;8.38;;
39078;SDS011;24829;49.208;12.080;2023-01-26T15:28:49;15.65;;;7.47;;
39078;SDS011;24829;49.208;12.080;2023-01-26T15:36:54;18.02;;;8.65;;
39078;SDS011;24829;49.208;12.080;2023-01-26T15:39:22;14.90;;;6.57;;
39078;SDS011;24829;49.208;12.080;2023-01-26T15:44:37;22.83;;;8.98;;
39078;SDS011;24829;49.208;12.080;2023-01-26T15:47:03;22.92;;;10.18;;
39078;SDS011;24829;49.208;12.080;2023-01-26T15:49:31;17.63;;;8.52;;
39078;SDS011;24829;49.208;12.080;2023-01-26T15:51:57;20.13;;;8.13;;
39078;SDS011;24829;49.208;12.080;2023-01-26T15:54:22;18.38;;;7.55;;
39078;SDS011;24829;49.208;12.080;2023-01-26T15:56:48;16.88;;;7.35;;
39078;SDS011;24829;49.208;12.080;2023-01-26T15:59:14;15.82;;;6.95;;
39078;SDS011;24829;49.208;12.080;2023-01-26T16:01:39;15.05;;;7.13;;
39078;SDS011;24829;49.208;12.080;2023-01-26T16:04:05;16.77;;;6.97;;
39078;SDS011;24829;49.208;12.080;2023-01-26T16:06:32;17.77;;;7.65;;
39078;SDS011;24829;49.208;12.080;2023-01-26T16:08:58;20.95;;;8.40;;
39078;SDS011;24829;49.208;12.080;2023-01-26T16:11:25;19.33;;;7.85;;
39078;SDS011;24829;49.208;12.080;2023-01-26T16:13:53;18.63;;;7.07;;
39078;SDS011;24829;49.208;12.080;2023-01-26T16:16:20;19.27;;;7.78;;
39078;SDS011;24829;49.208;12.080;2023-01-26T16:18:47;18.17;;;8.50;;